sensor_id;sensor_type;location;lat;lon;timestamp;P1;durP1;ratioP1;P2;durP2;ratioP2
44750;SDS011;30477;48.224;11.470;2022-10-04T00:00:26;16.73;;;12.40;;
44750;SDS011;30477;48.224;11.470;2022-10-04T00:02:57;16.58;;;11.93;;
44750;SDS011;30477;48.224;11.470;2022-10-04T00:05:30;19.42;;;11.63;;
44750;SDS011;30477;48.224;11.470;2022-10-04T00:07:56;14.15;;;10.93;;
44750;SDS011;30477;48.224;11.470;2022-10-04T00:10:30;15.52;;;10.38;;
44750;SDS011;30477;48.224;11.470;2022-10-04T00:12:58;16.88;;;11.32;;
44750;SDS011;30477;48.224;11.470;2022-10-04T00:15:29;13.48;;;10.60;;
44750;SDS011;30477;48.224;11.470;2022-10-04T00:26:02;17.35;;;9.98;;
44750;SDS011;30477;48.224;11.470;2022-10-04T00:31:11;14.18;;;9.95;;
44750;SDS011;30477;48.224;11.470;2022-10-04T00:33:41;10.23;;;8.52;;
44750;SDS011;30477;48.224;11.470;2022-10-04T00:44:14;11.35;;;9.73;;
44750;SDS011;30477;48.224;11.470;2022-10-04T00:46:43;13.82;;;9.63;;
44750;SDS011;30477;48.224;11.470;2022-10-04T00:49:10;14.57;;;9.80;;
44750;SDS011;30477;48.224;11.470;2022-10-04T00:51:45;13.30;;;10.00;;
44750;SDS011;30477;48.224;11.470;2022-10-04T00:56:43;17.40;;;10.00;;
44750;SDS011;30477;48.224;11.470;2022-10-04T01:01:55;13.57;;;9.70;;
44750;SDS011;30477;48.224;11.470;2022-10-04T01:04:30;10.48;;;8.93;;
44750;SDS011;30477;48.224;11.470;2022-10-04T01:07:02;10.52;;;8.30;;
44750;SDS011;30477;48.224;11.470;2022-10-04T01:09:31;12.80;;;8.35;;
44750;SDS011;30477;48.224;11.470;2022-10-04T01:12:06;11.10;;;7.82;;
44750;SDS011;30477;48.224;11.470;2022-10-04T01:14:40;13.35;;;8.77;;
44750;SDS011;30477;48.224;11.470;2022-10-04T01:17:31;11.30;;;8.52;;
44750;SDS011;30477;48.224;11.470;2022-10-04T01:19:57;15.18;;;8.35;;
44750;SDS011;30477;48.224;11.470;2022-10-04T01:22:29;14.30;;;8.37;;
44750;SDS011;30477;48.224;11.470;2022-10-04T01:24:56;11.43;;;8.65;;
44750;SDS011;30477;48.224;11.470;2022-10-04T01:27:40;11.80;;;8.47;;
44750;SDS011;30477;48.224;11.470;2022-10-04T01:30:16;11.35;;;8.18;;
44750;SDS011;30477;48.224;11.470;2022-10-04T01:32:42;11.57;;;7.90;;
44750;SDS011;30477;48.224;11.470;2022-10-04T01:35:08;12.13;;;8.27;;
44750;SDS011;30477;48.224;11.470;2022-10-04T01:37:36;13.75;;;8.43;;
44750;SDS011;30477;48.224;11.470;2022-10-04T01:40:03;15.10;;;9.02;;
44750;SDS011;30477;48.224;11.470;2022-10-04T01:42:35;12.63;;;9.85;;
44750;SDS011;30477;48.224;11.470;2022-10-04T01:47:55;11.63;;;8.68;;
44750;SDS011;30477;48.224;11.470;2022-10-04T01:50:33;13.90;;;8.95;;
44750;SDS011;30477;48.224;11.470;2022-10-04T01:53:14;14.38;;;8.93;;
44750;SDS011;30477;48.224;11.470;2022-10-04T01:55:49;14.05;;;9.38;;
44750;SDS011;30477;48.224;11.470;2022-10-04T01:58:25;14.20;;;9.15;;
44750;SDS011;30477;48.224;11.470;2022-10-04T02:00:56;10.25;;;8.27;;
44750;SDS011;30477;48.224;11.470;2022-10-04T02:03:34;9.98;;;8.48;;
44750;SDS011;30477;48.224;11.470;2022-10-04T02:06:07;8.43;;;7.30;;
44750;SDS011;30477;48.224;11.470;2022-10-04T02:08:36;9.88;;;7.85;;
44750;SDS011;30477;48.224;11.470;2022-10-04T02:11:05;10.70;;;7.15;;
44750;SDS011;30477;48.224;11.470;2022-10-04T02:13:32;11.93;;;8.25;;
44750;SDS011;30477;48.224;11.470;2022-10-04T02:16:01;10.15;;;7.30;;
44750;SDS011;30477;48.224;11.470;2022-10-04T02:18:27;15.35;;;9.68;;
44750;SDS011;30477;48.224;11.470;2022-10-04T02:20:55;15.38;;;8.82;;
44750;SDS011;30477;48.224;11.470;2022-10-04T02:25:48;13.00;;;9.35;;
44750;SDS011;30477;48.224;11.470;2022-10-04T02:28:13;12.03;;;9.57;;
44750;SDS011;30477;48.224;11.470;2022-10-04T02:30:41;11.57;;;8.80;;
44750;SDS011;30477;48.224;11.470;2022-10-04T02:33:29;13.75;;;8.88;;
44750;SDS011;30477;48.224;11.470;2022-10-04T02:35:55;9.45;;;7.93;;
44750;SDS011;30477;48.224;11.470;2022-10-04T02:38:22;10.65;;;8.02;;
44750;SDS011;30477;48.224;11.470;2022-10-04T02:40:55;12.57;;;8.50;;
44750;SDS011;30477;48.224;11.470;2022-10-04T02:43:27;10.02;;;8.18;;
44750;SDS011;30477;48.224;11.470;2022-10-04T02:49:18;11.15;;;8.57;;
44750;SDS011;30477;48.224;11.470;2022-10-04T02:57:16;12.32;;;8.35;;
44750;SDS011;30477;48.224;11.470;2022-10-04T02:59:44;12.30;;;8.98;;
44750;SDS011;30477;48.224;11.470;2022-10-04T03:02:26;14.97;;;9.03;;
44750;SDS011;30477;48.224;11.470;2022-10-04T03:04:54;10.43;;;8.32;;
44750;SDS011;30477;48.224;11.470;2022-10-04T03:07:23;12.07;;;8.60;;
44750;SDS011;30477;48.224;11.470;2022-10-04T03:09:49;11.65;;;7.90;;
44750;SDS011;30477;48.224;11.470;2022-10-04T03:12:15;10.90;;;8.20;;
44750;SDS011;30477;48.224;11.470;2022-10-04T03:14:41;11.05;;;8.02;;
44750;SDS011;30477;48.224;11.470;2022-10-04T03:17:08;9.85;;;8.07;;
44750;SDS011;30477;48.224;11.470;2022-10-04T03:19:34;11.63;;;8.33;;
44750;SDS011;30477;48.224;11.470;2022-10-04T03:22:02;10.48;;;8.13;;
44750;SDS011;30477;48.224;11.470;2022-10-04T03:24:47;12.55;;;7.70;;
44750;SDS011;30477;48.224;11.470;2022-10-04T03:27:18;9.25;;;7.78;;
44750;SDS011;30477;48.224;11.470;2022-10-04T03:29:47;12.25;;;8.93;;
44750;SDS011;30477;48.224;11.470;2022-10-04T03:32:14;13.15;;;8.30;;
44750;SDS011;30477;48.224;11.470;2022-10-04T03:34:43;9.90;;;7.72;;
44750;SDS011;30477;48.224;11.470;2022-10-04T03:37:16;11.77;;;8.15;;
44750;SDS011;30477;48.224;11.470;2022-10-04T03:39:45;9.48;;;7.90;;
44750;SDS011;30477;48.224;11.470;2022-10-04T03:42:14;10.27;;;7.25;;
44750;SDS011;30477;48.224;11.470;2022-10-04T03:44:42;10.90;;;7.68;;
44750;SDS011;30477;48.224;11.470;2022-10-04T03:47:13;9.45;;;7.00;;
44750;SDS011;30477;48.224;11.470;2022-10-04T03:49:44;7.90;;;6.35;;
44750;SDS011;30477;48.224;11.470;2022-10-04T03:52:15;8.80;;;7.38;;
44750;SDS011;30477;48.224;11.470;2022-10-04T03:54:45;9.82;;;7.72;;
44750;SDS011;30477;48.224;11.470;2022-10-04T03:57:11;9.60;;;8.00;;
44750;SDS011;30477;48.224;11.470;2022-10-04T03:59:37;10.53;;;7.90;;
44750;SDS011;30477;48.224;11.470;2022-10-04T04:04:40;10.18;;;8.18;;
44750;SDS011;30477;48.224;11.470;2022-10-04T04:07:24;11.45;;;7.55;;
44750;SDS011;30477;48.224;11.470;2022-10-04T04:10:04;10.38;;;7.75;;
44750;SDS011;30477;48.224;11.470;2022-10-04T04:12:42;10.43;;;7.45;;
44750;SDS011;30477;48.224;11.470;2022-10-04T04:15:12;14.23;;;7.97;;
44750;SDS011;30477;48.224;11.470;2022-10-04T04:17:43;11.05;;;7.65;;
44750;SDS011;30477;48.224;11.470;2022-10-04T04:20:32;11.02;;;8.18;;
44750;SDS011;30477;48.224;11.470;2022-10-04T04:25:43;10.55;;;8.48;;
44750;SDS011;30477;48.224;11.470;2022-10-04T04:28:31;10.98;;;8.00;;
44750;SDS011;30477;48.224;11.470;2022-10-04T04:31:07;9.70;;;7.13;;
44750;SDS011;30477;48.224;11.470;2022-10-04T04:33:42;9.80;;;7.32;;
44750;SDS011;30477;48.224;11.470;2022-10-04T04:36:11;16.05;;;8.60;;
44750;SDS011;30477;48.224;11.470;2022-10-04T04:38:38;9.52;;;8.20;;
44750;SDS011;30477;48.224;11.470;2022-10-04T04:41:24;11.75;;;9.07;;
44750;SDS011;30477;48.224;11.470;2022-10-04T04:43:57;13.48;;;9.25;;
44750;SDS011;30477;48.224;11.470;2022-10-04T04:46:23;13.93;;;10.23;;
44750;SDS011;30477;48.224;11.470;2022-10-04T04:48:50;12.93;;;10.60;;
44750;SDS011;30477;48.224;11.470;2022-10-04T04:51:22;15.55;;;9.77;;
44750;SDS011;30477;48.224;11.470;2022-10-04T04:53:49;13.27;;;9.48;;
44750;SDS011;30477;48.224;11.470;2022-10-04T04:56:16;16.00;;;9.38;;
44750;SDS011;30477;48.224;11.470;2022-10-04T04:58:45;14.35;;;9.50;;
44750;SDS011;30477;48.224;11.470;2022-10-04T05:06:43;10.48;;;7.70;;
44750;SDS011;30477;48.224;11.470;2022-10-04T05:09:31;12.18;;;9.45;;
44750;SDS011;30477;48.224;11.470;2022-10-04T05:14:53;12.13;;;8.82;;
44750;SDS011;30477;48.224;11.470;2022-10-04T05:17:19;11.13;;;7.65;;
44750;SDS011;30477;48.224;11.470;2022-10-04T05:19:48;8.70;;;7.80;;
44750;SDS011;30477;48.224;11.470;2022-10-04T05:22:15;13.23;;;8.50;;
44750;SDS011;30477;48.224;11.470;2022-10-04T05:24:47;11.25;;;8.05;;
44750;SDS011;30477;48.224;11.470;2022-10-04T05:27:37;10.90;;;8.55;;
44750;SDS011;30477;48.224;11.470;2022-10-04T05:30:05;12.73;;;8.23;;
44750;SDS011;30477;48.224;11.470;2022-10-04T05:35:40;17.33;;;11.95;;
44750;SDS011;30477;48.224;11.470;2022-10-04T05:41:08;24.08;;;16.77;;
44750;SDS011;30477;48.224;11.470;2022-10-04T05:43:44;22.83;;;14.65;;
44750;SDS011;30477;48.224;11.470;2022-10-04T05:48:41;16.15;;;11.35;;
44750;SDS011;30477;48.224;11.470;2022-10-04T05:59:11;18.42;;;11.65;;
44750;SDS011;30477;48.224;11.470;2022-10-04T06:05:50;18.30;;;12.27;;
44750;SDS011;30477;48.224;11.470;2022-10-04T06:10:56;15.27;;;11.48;;
44750;SDS011;30477;48.224;11.470;2022-10-04T06:19:38;14.45;;;9.77;;
44750;SDS011;30477;48.224;11.470;2022-10-04T06:22:22;16.98;;;11.02;;
44750;SDS011;30477;48.224;11.470;2022-10-04T06:24:52;14.15;;;11.02;;
44750;SDS011;30477;48.224;11.470;2022-10-04T06:27:30;15.23;;;10.38;;
44750;SDS011;30477;48.224;11.470;2022-10-04T06:30:06;14.43;;;10.50;;
44750;SDS011;30477;48.224;11.470;2022-10-04T06:43:49;11.88;;;10.07;;
44750;SDS011;30477;48.224;11.470;2022-10-04T06:54:34;11.02;;;9.25;;
44750;SDS011;30477;48.224;11.470;2022-10-04T07:02:54;16.30;;;8.82;;
44750;SDS011;30477;48.224;11.470;2022-10-04T07:05:34;15.60;;;9.48;;
44750;SDS011;30477;48.224;11.470;2022-10-04T07:14:27;14.70;;;10.75;;
44750;SDS011;30477;48.224;11.470;2022-10-04T07:19:26;15.80;;;11.20;;
44750;SDS011;30477;48.224;11.470;2022-10-04T07:30:45;15.60;;;11.55;;
44750;SDS011;30477;48.224;11.470;2022-10-04T07:33:20;17.63;;;11.88;;
44750;SDS011;30477;48.224;11.470;2022-10-04T07:36:10;16.30;;;11.77;;
44750;SDS011;30477;48.224;11.470;2022-10-04T07:38:55;16.52;;;12.55;;
44750;SDS011;30477;48.224;11.470;2022-10-04T07:41:27;19.02;;;11.73;;
44750;SDS011;30477;48.224;11.470;2022-10-04T07:44:00;17.60;;;11.73;;
44750;SDS011;30477;48.224;11.470;2022-10-04T07:46:38;14.27;;;11.05;;
44750;SDS011;30477;48.224;11.470;2022-10-04T07:49:14;14.27;;;11.20;;
44750;SDS011;30477;48.224;11.470;2022-10-04T07:54:21;16.08;;;11.85;;
44750;SDS011;30477;48.224;11.470;2022-10-04T08:05:20;13.35;;;9.85;;
44750;SDS011;30477;48.224;11.470;2022-10-04T08:15:41;12.83;;;9.40;;
44750;SDS011;30477;48.224;11.470;2022-10-04T08:54:43;13.43;;;8.02;;
44750;SDS011;30477;48.224;11.470;2022-10-04T09:05:22;10.93;;;5.88;;
44750;SDS011;30477;48.224;11.470;2022-10-04T09:08:01;13.25;;;6.38;;
44750;SDS011;30477;48.224;11.470;2022-10-04T09:13:47;9.43;;;5.90;;
44750;SDS011;30477;48.224;11.470;2022-10-04T09:16:45;11.18;;;6.35;;
44750;SDS011;30477;48.224;11.470;2022-10-04T09:22:17;13.45;;;5.82;;
44750;SDS011;30477;48.224;11.470;2022-10-04T09:52:52;7.88;;;5.82;;
44750;SDS011;30477;48.224;11.470;2022-10-04T09:55:42;7.65;;;4.97;;
44750;SDS011;30477;48.224;11.470;2022-10-04T09:58:33;7.97;;;5.45;;
44750;SDS011;30477;48.224;11.470;2022-10-04T10:01:24;10.75;;;5.50;;
44750;SDS011;30477;48.224;11.470;2022-10-04T10:06:56;7.95;;;5.20;;
44750;SDS011;30477;48.224;11.470;2022-10-04T10:09:30;10.13;;;5.40;;
44750;SDS011;30477;48.224;11.470;2022-10-04T10:18:12;9.93;;;5.80;;
44750;SDS011;30477;48.224;11.470;2022-10-04T10:20:49;10.88;;;5.57;;
44750;SDS011;30477;48.224;11.470;2022-10-04T10:23:30;11.50;;;5.82;;
44750;SDS011;30477;48.224;11.470;2022-10-04T10:31:50;8.85;;;5.35;;
44750;SDS011;30477;48.224;11.470;2022-10-04T10:37:40;7.93;;;5.32;;
44750;SDS011;30477;48.224;11.470;2022-10-04T10:48:14;14.80;;;5.20;;
44750;SDS011;30477;48.224;11.470;2022-10-04T10:51:01;9.15;;;4.40;;
44750;SDS011;30477;48.224;11.470;2022-10-04T10:56:34;5.40;;;4.75;;
44750;SDS011;30477;48.224;11.470;2022-10-04T11:15:37;7.95;;;4.53;;
44750;SDS011;30477;48.224;11.470;2022-10-04T11:29:09;8.50;;;4.53;;
44750;SDS011;30477;48.224;11.470;2022-10-04T11:40:15;6.03;;;4.47;;
44750;SDS011;30477;48.224;11.470;2022-10-04T11:46:09;5.35;;;4.82;;
44750;SDS011;30477;48.224;11.470;2022-10-04T11:57:19;6.72;;;4.20;;
44750;SDS011;30477;48.224;11.470;2022-10-04T12:07:56;7.07;;;4.18;;
44750;SDS011;30477;48.224;11.470;2022-10-04T12:10:36;6.68;;;4.13;;
44750;SDS011;30477;48.224;11.470;2022-10-04T12:27:41;9.05;;;4.10;;
44750;SDS011;30477;48.224;11.470;2022-10-04T12:30:24;6.63;;;3.83;;
44750;SDS011;30477;48.224;11.470;2022-10-04T12:33:52;6.88;;;3.85;;
44750;SDS011;30477;48.224;11.470;2022-10-04T12:39:10;5.72;;;3.75;;
44750;SDS011;30477;48.224;11.470;2022-10-04T12:44:40;6.05;;;3.90;;
44750;SDS011;30477;48.224;11.470;2022-10-04T12:47:27;7.50;;;3.78;;
44750;SDS011;30477;48.224;11.470;2022-10-04T13:00:49;8.65;;;3.50;;
44750;SDS011;30477;48.224;11.470;2022-10-04T13:08:57;6.38;;;3.92;;
44750;SDS011;30477;48.224;11.470;2022-10-04T13:14:37;8.10;;;3.80;;
44750;SDS011;30477;48.224;11.470;2022-10-04T13:17:38;5.07;;;3.58;;
44750;SDS011;30477;48.224;11.470;2022-10-04T13:26:04;8.77;;;4.25;;
44750;SDS011;30477;48.224;11.470;2022-10-04T13:28:57;7.35;;;4.30;;
44750;SDS011;30477;48.224;11.470;2022-10-04T13:42:11;7.32;;;4.18;;
44750;SDS011;30477;48.224;11.470;2022-10-04T13:50:07;6.55;;;3.60;;
44750;SDS011;30477;48.224;11.470;2022-10-04T13:57:02;7.30;;;4.00;;
44750;SDS011;30477;48.224;11.470;2022-10-04T14:02:10;6.65;;;3.40;;
44750;SDS011;30477;48.224;11.470;2022-10-04T14:07:49;5.43;;;3.40;;
44750;SDS011;30477;48.224;11.470;2022-10-04T14:13:26;10.32;;;3.72;;
44750;SDS011;30477;48.224;11.470;2022-10-04T14:16:37;7.70;;;3.45;;
44750;SDS011;30477;48.224;11.470;2022-10-04T14:35:40;6.95;;;3.10;;
44750;SDS011;30477;48.224;11.470;2022-10-04T14:38:33;8.23;;;3.30;;
44750;SDS011;30477;48.224;11.470;2022-10-04T14:44:08;6.80;;;3.40;;
44750;SDS011;30477;48.224;11.470;2022-10-04T14:47:08;5.30;;;2.80;;
44750;SDS011;30477;48.224;11.470;2022-10-04T14:55:28;4.43;;;3.10;;
44750;SDS011;30477;48.224;11.470;2022-10-04T15:06:12;4.60;;;2.75;;
44750;SDS011;30477;48.224;11.470;2022-10-04T15:14:22;4.25;;;2.88;;
44750;SDS011;30477;48.224;11.470;2022-10-04T15:16:55;3.88;;;2.70;;
44750;SDS011;30477;48.224;11.470;2022-10-04T15:19:28;5.30;;;2.80;;
44750;SDS011;30477;48.224;11.470;2022-10-04T15:22:18;6.22;;;2.92;;
44750;SDS011;30477;48.224;11.470;2022-10-04T15:24:49;4.93;;;2.90;;
44750;SDS011;30477;48.224;11.470;2022-10-04T15:27:21;3.60;;;2.60;;
44750;SDS011;30477;48.224;11.470;2022-10-04T15:32:59;3.90;;;2.60;;
44750;SDS011;30477;48.224;11.470;2022-10-04T15:41:17;5.13;;;2.60;;
44750;SDS011;30477;48.224;11.470;2022-10-04T15:46:40;5.05;;;2.40;;
44750;SDS011;30477;48.224;11.470;2022-10-04T15:49:14;6.72;;;2.60;;
44750;SDS011;30477;48.224;11.470;2022-10-04T15:56:51;3.83;;;2.80;;
44750;SDS011;30477;48.224;11.470;2022-10-04T16:15:35;5.90;;;2.40;;
44750;SDS011;30477;48.224;11.470;2022-10-04T16:20:49;4.68;;;2.30;;
44750;SDS011;30477;48.224;11.470;2022-10-04T16:23:31;3.85;;;2.35;;
44750;SDS011;30477;48.224;11.470;2022-10-04T16:28:55;7.10;;;2.10;;
44750;SDS011;30477;48.224;11.470;2022-10-04T16:32:00;4.78;;;2.40;;
44750;SDS011;30477;48.224;11.470;2022-10-04T16:37:29;4.53;;;2.97;;
44750;SDS011;30477;48.224;11.470;2022-10-04T16:42:45;3.63;;;2.30;;
44750;SDS011;30477;48.224;11.470;2022-10-04T16:48:03;6.00;;;2.85;;
44750;SDS011;30477;48.224;11.470;2022-10-04T16:55:53;9.07;;;4.38;;
44750;SDS011;30477;48.224;11.470;2022-10-04T17:03:47;7.35;;;5.07;;
44750;SDS011;30477;48.224;11.470;2022-10-04T17:36:10;14.80;;;8.95;;
44750;SDS011;30477;48.224;11.470;2022-10-04T17:52:54;15.48;;;8.05;;
44750;SDS011;30477;48.224;11.470;2022-10-04T17:55:52;12.30;;;7.20;;
44750;SDS011;30477;48.224;11.470;2022-10-04T18:01:06;9.73;;;6.45;;
44750;SDS011;30477;48.224;11.470;2022-10-04T18:09:41;10.25;;;6.18;;
44750;SDS011;30477;48.224;11.470;2022-10-04T18:12:11;12.95;;;6.53;;
44750;SDS011;30477;48.224;11.470;2022-10-04T18:17:41;11.48;;;7.85;;
44750;SDS011;30477;48.224;11.470;2022-10-04T18:20:28;12.88;;;7.45;;
44750;SDS011;30477;48.224;11.470;2022-10-04T18:23:17;10.07;;;7.45;;
44750;SDS011;30477;48.224;11.470;2022-10-04T18:25:53;14.85;;;8.73;;
44750;SDS011;30477;48.224;11.470;2022-10-04T18:28:27;14.35;;;9.57;;
44750;SDS011;30477;48.224;11.470;2022-10-04T18:30:53;18.37;;;11.80;;
44750;SDS011;30477;48.224;11.470;2022-10-04T18:33:29;18.55;;;10.73;;
44750;SDS011;30477;48.224;11.470;2022-10-04T18:36:19;15.93;;;9.25;;
44750;SDS011;30477;48.224;11.470;2022-10-04T18:38:59;15.35;;;8.55;;
44750;SDS011;30477;48.224;11.470;2022-10-04T18:41:28;11.77;;;8.50;;
44750;SDS011;30477;48.224;11.470;2022-10-04T18:44:15;15.00;;;9.02;;
44750;SDS011;30477;48.224;11.470;2022-10-04T18:46:44;18.63;;;9.48;;
44750;SDS011;30477;48.224;11.470;2022-10-04T18:49:26;15.65;;;9.73;;
44750;SDS011;30477;48.224;11.470;2022-10-04T18:51:56;18.38;;;9.70;;
44750;SDS011;30477;48.224;11.470;2022-10-04T18:57:27;13.93;;;7.97;;
44750;SDS011;30477;48.224;11.470;2022-10-04T19:00:09;13.27;;;8.80;;
44750;SDS011;30477;48.224;11.470;2022-10-04T19:05:44;10.77;;;8.95;;
44750;SDS011;30477;48.224;11.470;2022-10-04T19:12:00;18.90;;;10.90;;
44750;SDS011;30477;48.224;11.470;2022-10-04T19:19:41;17.13;;;11.90;;
44750;SDS011;30477;48.224;11.470;2022-10-04T19:28:17;13.23;;;9.15;;
44750;SDS011;30477;48.224;11.470;2022-10-04T19:33:34;15.98;;;10.40;;
44750;SDS011;30477;48.224;11.470;2022-10-04T19:38:49;21.13;;;11.80;;
44750;SDS011;30477;48.224;11.470;2022-10-04T19:47:00;23.80;;;16.17;;
44750;SDS011;30477;48.224;11.470;2022-10-04T19:49:41;19.05;;;13.15;;
44750;SDS011;30477;48.224;11.470;2022-10-04T19:54:40;11.90;;;9.33;;
44750;SDS011;30477;48.224;11.470;2022-10-04T19:57:08;14.17;;;9.80;;
44750;SDS011;30477;48.224;11.470;2022-10-04T19:59:40;12.85;;;9.63;;
44750;SDS011;30477;48.224;11.470;2022-10-04T20:02:10;17.48;;;11.00;;
44750;SDS011;30477;48.224;11.470;2022-10-04T20:04:37;19.88;;;12.73;;
44750;SDS011;30477;48.224;11.470;2022-10-04T20:07:23;15.80;;;11.77;;
44750;SDS011;30477;48.224;11.470;2022-10-04T20:12:37;17.52;;;12.70;;
44750;SDS011;30477;48.224;11.470;2022-10-04T20:17:36;17.45;;;11.55;;
44750;SDS011;30477;48.224;11.470;2022-10-04T20:20:03;16.30;;;10.85;;
44750;SDS011;30477;48.224;11.470;2022-10-04T20:22:29;18.63;;;12.00;;
44750;SDS011;30477;48.224;11.470;2022-10-04T20:25:57;20.67;;;13.02;;
44750;SDS011;30477;48.224;11.470;2022-10-04T20:30:53;17.17;;;12.75;;
44750;SDS011;30477;48.224;11.470;2022-10-04T20:36:08;20.13;;;12.00;;
44750;SDS011;30477;48.224;11.470;2022-10-04T20:46:25;13.43;;;9.80;;
44750;SDS011;30477;48.224;11.470;2022-10-04T20:48:55;11.93;;;8.88;;
44750;SDS011;30477;48.224;11.470;2022-10-04T20:51:29;15.30;;;10.30;;
44750;SDS011;30477;48.224;11.470;2022-10-04T20:53:57;15.43;;;11.07;;
44750;SDS011;30477;48.224;11.470;2022-10-04T20:56:25;14.18;;;10.43;;
44750;SDS011;30477;48.224;11.470;2022-10-04T20:58:56;15.20;;;11.45;;
44750;SDS011;30477;48.224;11.470;2022-10-04T21:04:10;13.35;;;10.27;;
44750;SDS011;30477;48.224;11.470;2022-10-04T21:06:52;13.68;;;10.38;;
44750;SDS011;30477;48.224;11.470;2022-10-04T21:09:18;12.90;;;10.60;;
44750;SDS011;30477;48.224;11.470;2022-10-04T21:11:45;14.25;;;10.88;;
44750;SDS011;30477;48.224;11.470;2022-10-04T21:14:23;17.25;;;11.80;;
44750;SDS011;30477;48.224;11.470;2022-10-04T21:16:51;19.65;;;12.50;;
44750;SDS011;30477;48.224;11.470;2022-10-04T21:22:03;16.52;;;12.20;;
44750;SDS011;30477;48.224;11.470;2022-10-04T21:24:38;14.88;;;12.18;;
44750;SDS011;30477;48.224;11.470;2022-10-04T21:27:27;20.15;;;12.40;;
44750;SDS011;30477;48.224;11.470;2022-10-04T21:30:23;16.70;;;11.45;;
44750;SDS011;30477;48.224;11.470;2022-10-04T21:32:48;17.20;;;12.13;;
44750;SDS011;30477;48.224;11.470;2022-10-04T21:35:14;17.33;;;11.53;;
44750;SDS011;30477;48.224;11.470;2022-10-04T21:37:39;15.77;;;11.23;;
44750;SDS011;30477;48.224;11.470;2022-10-04T21:40:05;14.57;;;11.43;;
44750;SDS011;30477;48.224;11.470;2022-10-04T21:44:56;17.05;;;11.15;;
44750;SDS011;30477;48.224;11.470;2022-10-04T21:47:22;15.87;;;10.43;;
44750;SDS011;30477;48.224;11.470;2022-10-04T21:49:47;16.20;;;11.03;;
44750;SDS011;30477;48.224;11.470;2022-10-04T21:52:16;14.45;;;10.70;;
44750;SDS011;30477;48.224;11.470;2022-10-04T21:54:42;17.55;;;11.48;;
44750;SDS011;30477;48.224;11.470;2022-10-04T21:57:08;18.98;;;11.73;;
44750;SDS011;30477;48.224;11.470;2022-10-04T21:59:33;28.20;;;13.83;;
44750;SDS011;30477;48.224;11.470;2022-10-04T22:01:59;37.33;;;14.47;;
44750;SDS011;30477;48.224;11.470;2022-10-04T22:04:24;57.03;;;18.70;;
44750;SDS011;30477;48.224;11.470;2022-10-04T22:06:50;47.03;;;18.67;;
44750;SDS011;30477;48.224;11.470;2022-10-04T22:09:15;41.60;;;16.73;;
44750;SDS011;30477;48.224;11.470;2022-10-04T22:11:40;31.93;;;15.50;;
44750;SDS011;30477;48.224;11.470;2022-10-04T22:14:06;29.93;;;14.10;;
44750;SDS011;30477;48.224;11.470;2022-10-04T22:16:31;28.80;;;18.43;;
44750;SDS011;30477;48.224;11.470;2022-10-04T22:18:56;28.77;;;17.80;;
44750;SDS011;30477;48.224;11.470;2022-10-04T22:21:22;26.10;;;16.17;;
44750;SDS011;30477;48.224;11.470;2022-10-04T22:23:47;26.37;;;14.93;;
44750;SDS011;30477;48.224;11.470;2022-10-04T22:26:14;17.67;;;12.30;;
44750;SDS011;30477;48.224;11.470;2022-10-04T22:28:43;21.17;;;13.10;;
44750;SDS011;30477;48.224;11.470;2022-10-04T22:31:10;19.40;;;13.00;;
44750;SDS011;30477;48.224;11.470;2022-10-04T22:33:41;22.85;;;15.15;;
44750;SDS011;30477;48.224;11.470;2022-10-04T22:38:50;22.13;;;15.43;;
44750;SDS011;30477;48.224;11.470;2022-10-04T22:41:24;20.35;;;13.90;;
44750;SDS011;30477;48.224;11.470;2022-10-04T22:43:54;19.58;;;13.30;;
44750;SDS011;30477;48.224;11.470;2022-10-04T22:46:21;20.02;;;14.35;;
44750;SDS011;30477;48.224;11.470;2022-10-04T22:48:49;17.88;;;13.98;;
44750;SDS011;30477;48.224;11.470;2022-10-04T22:51:14;21.17;;;14.90;;
44750;SDS011;30477;48.224;11.470;2022-10-04T22:53:40;18.10;;;13.90;;
44750;SDS011;30477;48.224;11.470;2022-10-04T22:56:07;17.98;;;12.55;;
44750;SDS011;30477;48.224;11.470;2022-10-04T22:58:33;16.60;;;13.18;;
44750;SDS011;30477;48.224;11.470;2022-10-04T23:00:58;19.67;;;13.10;;
44750;SDS011;30477;48.224;11.470;2022-10-04T23:03:30;18.77;;;12.48;;
44750;SDS011;30477;48.224;11.470;2022-10-04T23:05:57;18.50;;;12.52;;
44750;SDS011;30477;48.224;11.470;2022-10-04T23:08:24;18.58;;;11.45;;
44750;SDS011;30477;48.224;11.470;2022-10-04T23:10:53;13.67;;;10.47;;
44750;SDS011;30477;48.224;11.470;2022-10-04T23:13:20;14.90;;;9.48;;
44750;SDS011;30477;48.224;11.470;2022-10-04T23:15:46;12.88;;;9.95;;
44750;SDS011;30477;48.224;11.470;2022-10-04T23:18:15;13.87;;;10.47;;
44750;SDS011;30477;48.224;11.470;2022-10-04T23:20:41;16.05;;;10.48;;
44750;SDS011;30477;48.224;11.470;2022-10-04T23:23:09;16.08;;;10.75;;
44750;SDS011;30477;48.224;11.470;2022-10-04T23:25:36;15.45;;;10.25;;
44750;SDS011;30477;48.224;11.470;2022-10-04T23:28:11;13.35;;;9.48;;
44750;SDS011;30477;48.224;11.470;2022-10-04T23:30:37;14.93;;;9.85;;
44750;SDS011;30477;48.224;11.470;2022-10-04T23:33:05;12.63;;;9.17;;
44750;SDS011;30477;48.224;11.470;2022-10-04T23:35:46;12.88;;;8.88;;
44750;SDS011;30477;48.224;11.470;2022-10-04T23:38:13;14.32;;;10.35;;
44750;SDS011;30477;48.224;11.470;2022-10-04T23:40:40;17.42;;;12.15;;
44750;SDS011;30477;48.224;11.470;2022-10-04T23:43:27;19.33;;;13.07;;
44750;SDS011;30477;48.224;11.470;2022-10-04T23:45:55;17.13;;;12.68;;
44750;SDS011;30477;48.224;11.470;2022-10-04T23:48:26;18.63;;;12.77;;
44750;SDS011;30477;48.224;11.470;2022-10-04T23:50:53;16.52;;;11.70;;
44750;SDS011;30477;48.224;11.470;2022-10-04T23:53:27;16.65;;;11.95;;
44750;SDS011;30477;48.224;11.470;2022-10-04T23:55:56;17.52;;;12.27;;
44750;SDS011;30477;48.224;11.470;2022-10-04T23:58:28;21.23;;;12.48;;
